createdAt,value
2017-07-10T00:01:22.522Z,3.77
2017-07-10T00:03:52.047Z,4.63
2017-07-10T00:06:21.800Z,5.03
2017-07-10T00:08:51.911Z,2.80
2017-07-10T00:11:21.703Z,3.70
2017-07-10T00:13:51.208Z,4.10
2017-07-10T00:16:20.690Z,6.27
2017-07-10T00:18:51.039Z,4.80
2017-07-10T00:21:20.559Z,3.10
2017-07-10T00:23:50.465Z,5.00
2017-07-10T00:26:19.988Z,8.90
2017-07-10T00:28:49.490Z,4.30
2017-07-10T00:31:19.099Z,3.70
2017-07-10T00:33:48.602Z,3.63
2017-07-10T00:36:18.425Z,3.63
2017-07-10T00:38:47.938Z,3.90
2017-07-10T00:41:17.468Z,9.97
2017-07-10T00:43:46.958Z,8.00
2017-07-10T00:46:16.481Z,8.00
2017-07-10T00:48:46.241Z,5.17
2017-07-10T00:51:15.755Z,8.00
2017-07-10T00:53:45.655Z,6.20
2017-07-10T00:56:15.433Z,3.80
2017-07-10T00:58:44.927Z,4.30
2017-07-10T01:01:14.767Z,4.03
2017-07-10T01:03:44.263Z,5.33
2017-07-10T01:06:13.761Z,4.50
2017-07-10T01:08:43.281Z,4.37
2017-07-10T01:11:12.776Z,8.30
2017-07-10T01:13:42.611Z,4.40
2017-07-10T01:16:12.729Z,4.77
2017-07-10T01:18:42.233Z,4.00
2017-07-10T01:21:11.738Z,3.33
2017-07-10T01:23:41.264Z,3.40
2017-07-10T01:26:11.071Z,3.57
2017-07-10T01:28:40.585Z,4.87
2017-07-10T01:31:10.929Z,5.17
2017-07-10T01:33:40.523Z,3.53
2017-07-10T01:36:10.047Z,5.60
2017-07-10T01:38:39.659Z,4.47
2017-07-10T01:41:09.147Z,4.20
2017-07-10T01:43:38.667Z,5.03
2017-07-10T01:46:08.280Z,6.30
2017-07-10T01:48:38.195Z,9.10
2017-07-10T01:51:08.022Z,4.23
2017-07-10T01:53:38.269Z,5.70
2017-07-10T01:56:08.567Z,6.37
2017-07-10T01:58:38.079Z,7.87
2017-07-10T02:01:07.573Z,3.47
2017-07-10T02:03:37.084Z,3.67
2017-07-10T02:06:06.591Z,8.13
2017-07-10T02:08:36.368Z,3.80
2017-07-10T02:11:06.778Z,8.27
2017-07-10T02:13:36.550Z,11.93
2017-07-10T02:16:06.076Z,4.63
2017-07-10T02:18:35.598Z,4.37
2017-07-10T02:21:05.182Z,4.60
2017-07-10T02:23:34.671Z,5.73
2017-07-10T02:26:04.618Z,4.57
2017-07-10T02:28:34.122Z,9.97
2017-07-10T02:31:03.642Z,4.47
2017-07-10T02:33:33.261Z,4.77
2017-07-10T02:36:03.074Z,4.80
2017-07-10T02:38:32.879Z,3.57
2017-07-10T02:41:02.396Z,6.40
2017-07-10T02:43:32.310Z,6.10
2017-07-10T02:46:01.832Z,4.17
2017-07-10T02:48:31.327Z,3.60
2017-07-10T02:51:01.089Z,3.70
2017-07-10T02:53:31.090Z,5.43
2017-07-10T02:56:01.218Z,5.00
2017-07-10T02:58:31.244Z,5.70
2017-07-10T03:01:01.554Z,4.80
2017-07-10T03:03:31.569Z,4.77
2017-07-10T03:06:01.329Z,4.80
2017-07-10T03:08:30.835Z,7.37
2017-07-10T03:11:01.106Z,6.53
2017-07-10T03:13:30.612Z,9.00
2017-07-10T03:16:00.127Z,5.07
2017-07-10T03:18:29.755Z,6.67
2017-07-10T03:20:59.257Z,5.20
2017-07-10T03:23:29.064Z,6.53
2017-07-10T03:25:58.578Z,11.33
2017-07-10T03:28:28.209Z,28.07
2017-07-10T03:30:57.814Z,6.53
2017-07-10T03:33:27.298Z,5.77
2017-07-10T03:35:57.120Z,5.37
2017-07-10T03:38:26.623Z,5.73
2017-07-10T03:40:56.132Z,4.57
2017-07-10T03:43:25.645Z,5.77
2017-07-10T03:45:55.149Z,4.70
2017-07-10T03:48:24.977Z,5.47
2017-07-10T03:50:54.492Z,6.00
2017-07-10T03:53:24.728Z,4.73
2017-07-10T03:55:54.235Z,4.67
2017-07-10T03:58:23.849Z,4.80
2017-07-10T04:00:54.021Z,6.77
2017-07-10T04:03:23.850Z,5.10
2017-07-10T04:05:52.160Z,3.87
2017-07-10T04:08:21.273Z,4.10
2017-07-10T04:10:49.631Z,6.30
2017-07-10T04:13:18.194Z,6.50
2017-07-10T04:15:46.445Z,3.83
2017-07-10T04:18:15.507Z,6.13
2017-07-10T04:20:43.799Z,4.23
2017-07-10T04:23:13.315Z,4.43
2017-07-10T04:25:41.913Z,6.37
2017-07-10T04:28:10.558Z,4.07
2017-07-10T04:30:38.859Z,5.20
2017-07-10T04:33:07.234Z,4.63
2017-07-10T04:35:35.538Z,7.00
2017-07-10T04:38:04.160Z,4.07
2017-07-10T04:40:33.601Z,4.40
2017-07-10T04:43:01.925Z,3.80
2017-07-10T04:45:30.743Z,3.53
2017-07-10T04:47:59.053Z,5.03
2017-07-10T04:50:27.635Z,4.30
2017-07-10T04:52:55.995Z,4.83
2017-07-10T04:55:25.471Z,4.93
2017-07-10T04:57:54.233Z,5.67
2017-07-10T05:00:23.551Z,5.77
2017-07-10T05:02:52.160Z,6.27
2017-07-10T05:05:20.428Z,7.13
2017-07-10T05:07:48.746Z,11.90
2017-07-10T05:10:18.137Z,5.60
2017-07-10T05:12:46.533Z,5.13
2017-07-10T05:15:15.182Z,4.47
2017-07-10T05:17:43.592Z,4.10
2017-07-10T05:20:11.872Z,7.60
2017-07-10T05:22:40.269Z,5.30
2017-07-10T05:25:08.742Z,3.80
2017-07-10T05:27:37.138Z,7.40
2017-07-10T05:30:05.792Z,5.33
2017-07-10T05:32:34.100Z,4.40
2017-07-10T05:35:02.459Z,4.33
2017-07-10T05:37:30.843Z,5.27
2017-07-10T05:39:59.741Z,5.30
2017-07-10T05:42:28.508Z,12.13
2017-07-10T05:44:56.984Z,6.47
2017-07-10T05:47:25.290Z,5.20
2017-07-10T05:49:54.202Z,5.30
2017-07-10T05:52:22.520Z,6.47
2017-07-10T05:54:51.927Z,5.43
2017-07-10T05:57:20.995Z,7.50
2017-07-10T05:59:49.267Z,9.40
2017-07-10T06:02:17.596Z,3.63
2017-07-10T06:04:45.856Z,6.43
2017-07-10T06:07:14.510Z,7.40
2017-07-10T06:09:43.326Z,7.00
2017-07-10T06:12:11.613Z,5.50
2017-07-10T06:14:39.885Z,3.97
2017-07-10T06:17:09.497Z,4.23
2017-07-10T06:19:39.416Z,5.23
2017-07-10T06:22:08.207Z,4.43
2017-07-10T06:24:36.999Z,5.93
2017-07-10T06:27:05.266Z,5.37
2017-07-10T06:29:33.549Z,6.00
2017-07-10T06:32:02.132Z,5.17
2017-07-10T06:34:30.401Z,4.90
2017-07-10T06:36:58.677Z,6.10
2017-07-10T06:39:27.104Z,9.70
2017-07-10T06:41:55.387Z,4.47
2017-07-10T06:44:23.950Z,4.23
2017-07-10T06:46:52.623Z,9.00
2017-07-10T06:49:21.659Z,4.70
2017-07-10T06:51:50.419Z,5.50
2017-07-10T06:54:20.147Z,9.20
2017-07-10T06:56:48.746Z,5.97
2017-07-10T06:59:17.138Z,6.53
2017-07-10T07:01:45.600Z,6.50
2017-07-10T07:04:14.030Z,5.23
2017-07-10T07:06:42.401Z,5.43
2017-07-10T07:09:11.201Z,5.60
2017-07-10T07:11:39.544Z,15.00
2017-07-10T07:14:07.929Z,6.37
2017-07-10T07:16:36.312Z,5.57
2017-07-10T07:19:04.575Z,6.63
2017-07-10T07:21:33.161Z,4.90
2017-07-10T07:24:01.457Z,5.30
2017-07-10T07:26:29.750Z,5.73
2017-07-10T07:28:58.037Z,8.10
2017-07-10T07:31:26.367Z,7.10
2017-07-10T07:33:55.742Z,7.30
2017-07-10T07:36:24.311Z,5.80
2017-07-10T07:38:52.581Z,7.43
2017-07-10T07:41:21.309Z,5.70
2017-07-10T07:43:50.688Z,5.30
2017-07-10T07:46:19.840Z,6.13
2017-07-10T07:48:49.620Z,6.60
2017-07-10T07:51:17.902Z,5.80
2017-07-10T07:53:46.164Z,6.00
2017-07-10T07:56:14.569Z,6.37
2017-07-10T07:58:43.100Z,7.33
2017-07-10T08:01:11.912Z,9.70
2017-07-10T08:03:40.225Z,6.07
2017-07-10T08:06:08.538Z,5.37
2017-07-10T08:08:37.582Z,8.90
2017-07-10T08:11:06.208Z,6.07
2017-07-10T08:13:35.524Z,11.63
2017-07-10T08:16:04.577Z,6.77
2017-07-10T08:18:33.617Z,11.43
2017-07-10T08:21:02.056Z,7.67
2017-07-10T08:23:30.611Z,6.10
2017-07-10T08:26:00.231Z,9.27
2017-07-10T08:28:29.199Z,7.10
2017-07-10T08:30:58.389Z,9.20
2017-07-10T08:33:26.668Z,6.47
2017-07-10T08:35:55.272Z,14.03
2017-07-10T08:38:23.626Z,21.40
2017-07-10T08:40:51.928Z,12.50
2017-07-10T08:43:20.261Z,8.20
2017-07-10T08:45:48.579Z,12.77
2017-07-10T08:48:17.169Z,10.10
2017-07-10T08:50:45.476Z,10.27
2017-07-10T08:53:14.546Z,11.23
2017-07-10T08:55:42.947Z,9.50
2017-07-10T08:58:13.425Z,13.20
2017-07-10T09:00:42.075Z,11.57
2017-07-10T09:03:10.378Z,13.53
2017-07-10T09:05:38.694Z,12.03
2017-07-10T09:08:07.190Z,12.83
2017-07-10T09:10:35.571Z,16.50
2017-07-10T09:13:04.170Z,16.03
2017-07-10T09:15:32.476Z,13.90
2017-07-10T09:18:01.533Z,18.77
2017-07-10T09:20:29.876Z,17.27
2017-07-10T09:22:58.955Z,17.10
2017-07-10T09:25:27.528Z,21.27
2017-07-10T09:27:55.900Z,21.20
2017-07-10T09:30:24.229Z,35.13
2017-07-10T09:32:52.507Z,25.17
2017-07-10T09:35:21.585Z,20.83
2017-07-10T09:37:50.847Z,30.10
2017-07-10T09:40:19.146Z,21.13
2017-07-10T09:42:47.448Z,23.67
2017-07-10T09:45:16.334Z,24.63
2017-07-10T09:47:45.891Z,25.17
2017-07-10T09:50:15.295Z,23.30
2017-07-10T09:52:44.362Z,17.87
2017-07-10T09:55:12.919Z,19.40
2017-07-10T09:57:41.359Z,19.33
2017-07-10T10:00:09.608Z,20.63
2017-07-10T10:02:38.175Z,20.70
2017-07-10T10:05:06.441Z,21.60
2017-07-10T10:07:35.137Z,21.97
2017-07-10T10:10:03.440Z,18.23
2017-07-10T10:12:31.853Z,17.93
2017-07-10T10:15:00.521Z,18.30
2017-07-10T10:17:29.258Z,18.90
2017-07-10T10:19:57.898Z,18.10
2017-07-10T10:22:26.635Z,19.20
2017-07-10T10:24:55.712Z,21.90
2017-07-10T10:27:24.371Z,20.97
2017-07-10T10:29:52.758Z,24.07
2017-07-10T10:32:21.099Z,24.73
2017-07-10T10:34:50.245Z,18.97
2017-07-10T10:37:18.520Z,21.20
2017-07-10T10:39:47.111Z,19.87
2017-07-10T10:42:15.510Z,19.90
2017-07-10T10:44:44.038Z,17.87
2017-07-10T10:47:12.403Z,19.73
2017-07-10T10:49:41.582Z,19.10
2017-07-10T10:52:10.154Z,19.60
2017-07-10T10:54:38.562Z,24.50
2017-07-10T10:57:06.853Z,23.40
2017-07-10T10:59:36.017Z,21.02
2017-07-10T11:02:04.298Z,20.10
2017-07-10T11:04:32.887Z,16.70
2017-07-10T11:07:01.170Z,21.00
2017-07-10T11:09:29.593Z,16.67
2017-07-10T11:11:58.035Z,18.33
2017-07-10T11:14:26.336Z,18.40
2017-07-10T11:16:54.999Z,18.60
2017-07-10T11:19:23.421Z,16.97
2017-07-10T11:21:51.932Z,15.07
2017-07-10T11:24:20.212Z,15.53
2017-07-10T11:26:49.367Z,14.57
2017-07-10T11:29:17.952Z,14.70
2017-07-10T11:31:46.339Z,16.63
2017-07-10T11:34:15.577Z,15.60
2017-07-10T11:36:43.952Z,15.63
2017-07-10T11:39:12.849Z,17.77
2017-07-10T11:41:41.566Z,18.10
2017-07-10T11:44:09.914Z,17.20
2017-07-10T11:46:38.329Z,17.83
2017-07-10T11:49:08.319Z,17.10
2017-07-10T11:51:37.491Z,17.17
2017-07-10T11:54:06.113Z,17.43
2017-07-10T11:56:35.036Z,17.00
2017-07-10T11:59:04.970Z,16.90
2017-07-10T12:01:34.050Z,19.83
2017-07-10T12:04:03.127Z,18.43
2017-07-10T12:06:31.705Z,20.13
2017-07-10T12:08:59.997Z,20.63
2017-07-10T12:11:28.329Z,20.83
2017-07-10T12:13:58.204Z,26.87
2017-07-10T12:16:27.296Z,23.00
2017-07-10T12:18:56.025Z,24.70
2017-07-10T12:21:25.111Z,27.13
2017-07-10T12:23:54.186Z,27.43
2017-07-10T12:26:23.813Z,26.47
2017-07-10T12:28:52.983Z,24.20
2017-07-10T12:31:21.619Z,25.17
2017-07-10T12:33:49.959Z,25.03
2017-07-10T12:36:18.230Z,29.57
2017-07-10T12:38:47.147Z,25.17
2017-07-10T12:41:16.242Z,28.40
2017-07-10T12:43:45.351Z,35.10
2017-07-10T12:46:13.677Z,34.73
2017-07-10T12:48:42.000Z,37.50
2017-07-10T12:51:10.306Z,36.20
2017-07-10T12:53:39.504Z,43.90
2017-07-10T12:56:08.168Z,33.73
2017-07-10T12:58:36.512Z,30.90
2017-07-10T13:01:04.803Z,30.93
2017-07-10T13:03:33.149Z,27.67
2017-07-10T13:06:01.454Z,27.20
2017-07-10T13:08:30.037Z,29.13
2017-07-10T13:10:58.376Z,27.77
2017-07-10T13:13:26.653Z,25.77
2017-07-10T13:15:54.949Z,28.67
2017-07-10T13:18:23.359Z,29.77
2017-07-10T13:20:51.943Z,31.17
2017-07-10T13:23:21.027Z,30.93
2017-07-10T13:25:49.734Z,32.20
2017-07-10T13:28:18.810Z,28.57
2017-07-10T13:30:47.211Z,27.83
2017-07-10T13:33:16.575Z,24.47
2017-07-10T13:35:45.799Z,26.00
2017-07-10T13:38:14.281Z,23.40
2017-07-10T13:40:42.695Z,23.60
2017-07-10T13:43:11.744Z,23.27
2017-07-10T13:45:40.379Z,23.80
2017-07-10T13:48:09.797Z,23.33
2017-07-10T13:50:38.213Z,19.50
2017-07-10T13:53:06.628Z,21.30
2017-07-10T13:55:34.992Z,21.43
2017-07-10T13:58:03.670Z,24.20
2017-07-10T14:00:32.223Z,25.13
2017-07-10T14:03:00.556Z,28.30
2017-07-10T14:05:28.886Z,25.13
2017-07-10T14:07:57.291Z,27.63
2017-07-10T14:10:25.922Z,23.20
2017-07-10T14:12:54.329Z,25.50
2017-07-10T14:15:22.622Z,25.83
2017-07-10T14:17:50.942Z,26.10
2017-07-10T14:20:19.670Z,26.13
2017-07-10T14:22:48.279Z,23.77
2017-07-10T14:25:17.346Z,22.27
2017-07-10T14:27:45.635Z,23.33
2017-07-10T14:30:14.009Z,16.83
2017-07-10T14:32:42.325Z,19.03
2017-07-10T14:35:12.559Z,17.00
2017-07-10T14:37:41.663Z,22.57
2017-07-10T14:40:09.950Z,24.40
2017-07-10T14:42:42.802Z,21.60
2017-07-10T14:45:11.091Z,22.70
2017-07-10T14:47:39.802Z,25.07
2017-07-10T14:50:09.409Z,20.33
2017-07-10T14:52:38.527Z,18.30
2017-07-10T14:55:06.862Z,17.57
2017-07-10T14:57:35.159Z,19.00
2017-07-10T15:00:03.725Z,19.43
2017-07-10T15:02:32.007Z,20.33
2017-07-10T15:05:00.334Z,19.33
2017-07-10T15:07:29.417Z,19.47
2017-07-10T15:09:57.727Z,17.00
2017-07-10T15:12:26.280Z,19.77
2017-07-10T15:14:55.381Z,19.80
2017-07-10T15:17:23.777Z,20.40
2017-07-10T15:19:52.085Z,18.10
2017-07-10T15:22:21.088Z,18.83
2017-07-10T15:24:49.737Z,18.80
2017-07-10T15:27:18.720Z,20.57
2017-07-10T15:29:47.048Z,17.63
2017-07-10T15:32:15.371Z,18.70
2017-07-10T15:34:44.598Z,20.53
2017-07-10T15:37:13.270Z,20.30
2017-07-10T15:39:41.592Z,25.17
2017-07-10T15:42:10.668Z,19.57
2017-07-10T15:44:39.046Z,22.97
2017-07-10T15:47:07.343Z,21.27
2017-07-10T15:49:36.026Z,24.30
2017-07-10T15:52:04.300Z,22.87
2017-07-10T15:54:33.266Z,22.37
2017-07-10T15:57:02.295Z,21.83
2017-07-10T15:59:30.568Z,21.47
2017-07-10T16:01:59.149Z,22.00
2017-07-10T16:04:27.551Z,20.37
2017-07-10T16:06:56.240Z,19.93
2017-07-10T16:09:24.547Z,21.67
2017-07-10T16:11:53.079Z,19.20
2017-07-10T16:14:22.188Z,21.40
2017-07-10T16:16:50.567Z,20.83
2017-07-10T16:19:18.883Z,20.83
2017-07-10T16:21:47.153Z,17.27
2017-07-10T16:24:15.426Z,20.30
2017-07-10T16:26:44.355Z,18.77
2017-07-10T16:29:13.518Z,21.70
2017-07-10T16:31:41.839Z,24.50
2017-07-10T16:34:11.005Z,23.03
2017-07-10T16:36:39.335Z,21.40
2017-07-10T16:39:08.701Z,22.70
2017-07-10T16:41:37.710Z,22.97
2017-07-10T16:44:06.778Z,21.20
2017-07-10T16:46:35.076Z,21.13
2017-07-10T16:49:03.360Z,21.10
2017-07-10T16:51:32.381Z,22.90
2017-07-10T16:54:01.443Z,21.07
2017-07-10T16:56:29.750Z,20.40
2017-07-10T16:58:58.051Z,21.43
2017-07-10T17:01:26.399Z,20.65
2017-07-10T17:03:55.603Z,17.33
2017-07-10T17:06:23.896Z,18.00
2017-07-10T17:08:52.260Z,20.03
2017-07-10T17:11:20.671Z,21.63
2017-07-10T17:13:49.730Z,21.37
2017-07-10T17:16:18.315Z,18.60
2017-07-10T17:18:46.619Z,21.10
2017-07-10T17:21:15.628Z,19.00
2017-07-10T17:23:44.207Z,20.17
2017-07-10T17:26:12.701Z,18.67
2017-07-10T17:28:41.290Z,21.07
2017-07-10T17:31:09.801Z,19.93
2017-07-10T17:33:39.271Z,20.00
2017-07-10T17:36:07.577Z,18.53
2017-07-10T17:38:35.900Z,21.30
2017-07-10T17:41:04.540Z,20.43
2017-07-10T17:43:33.325Z,19.80
2017-07-10T17:46:02.357Z,22.70
2017-07-10T17:48:31.540Z,22.23
2017-07-10T17:51:01.262Z,21.77
2017-07-10T17:53:30.012Z,20.67
2017-07-10T17:55:58.422Z,17.90
2017-07-10T17:58:27.766Z,18.40
2017-07-10T18:00:56.830Z,19.50
2017-07-10T18:03:25.194Z,20.10
2017-07-10T18:05:53.792Z,21.00
2017-07-10T18:08:22.070Z,21.77
2017-07-10T18:10:50.345Z,21.53
2017-07-10T18:13:18.652Z,23.40
2017-07-10T18:15:48.882Z,22.30
2017-07-10T18:18:18.970Z,22.20
2017-07-10T18:20:48.099Z,19.40
2017-07-10T18:23:17.267Z,19.33
2017-07-10T18:25:45.664Z,21.20
2017-07-10T18:28:14.860Z,19.07
2017-07-10T18:30:43.442Z,20.80
2017-07-10T18:33:11.843Z,24.20
2017-07-10T18:35:40.726Z,21.13
2017-07-10T18:38:09.150Z,21.47
2017-07-10T18:40:38.013Z,22.20
2017-07-10T18:43:06.611Z,23.97
2017-07-10T18:45:36.036Z,23.67
2017-07-10T18:48:04.381Z,26.00
2017-07-10T18:50:32.666Z,25.33
2017-07-10T18:53:01.079Z,24.67
2017-07-10T18:55:29.770Z,26.60
2017-07-10T18:57:58.043Z,24.70
2017-07-10T19:00:26.552Z,23.87
2017-07-10T19:02:55.620Z,24.50
2017-07-10T19:05:23.933Z,25.30
2017-07-10T19:07:52.578Z,25.17
2017-07-10T19:10:21.729Z,25.00
2017-07-10T19:12:50.789Z,26.17
2017-07-10T19:15:19.788Z,24.43
2017-07-10T19:17:49.136Z,24.87
2017-07-10T19:20:17.755Z,28.30
2017-07-10T19:22:46.085Z,27.87
2017-07-10T19:25:14.451Z,27.63
2017-07-10T19:27:42.821Z,29.77
2017-07-10T19:30:11.132Z,28.47
2017-07-10T19:32:40.439Z,29.27
2017-07-10T19:35:08.996Z,26.33
2017-07-10T19:37:37.383Z,31.20
2017-07-10T19:40:05.790Z,32.60
2017-07-10T19:42:34.541Z,37.77
2017-07-10T19:45:03.344Z,33.13
2017-07-10T19:47:31.746Z,30.50
2017-07-10T19:50:00.663Z,28.33
2017-07-10T19:52:29.838Z,30.00
2017-07-10T19:54:58.645Z,33.67
2017-07-10T19:57:27.225Z,29.50
2017-07-10T19:59:55.543Z,29.87
2017-07-10T20:02:24.599Z,29.70
2017-07-10T20:04:53.693Z,33.23
2017-07-10T20:07:21.988Z,31.90
2017-07-10T20:09:50.564Z,31.10
2017-07-10T20:12:19.723Z,33.27
2017-07-10T20:14:48.062Z,33.30
2017-07-10T20:17:16.364Z,32.40
2017-07-10T20:19:45.439Z,34.43
2017-07-10T20:22:14.564Z,33.30
2017-07-10T20:24:43.253Z,31.37
2017-07-10T20:27:12.356Z,34.00
2017-07-10T20:29:40.718Z,35.43
2017-07-10T20:32:09.682Z,37.47
2017-07-10T20:34:38.282Z,37.07
2017-07-10T20:37:06.971Z,39.70
2017-07-10T20:39:35.268Z,40.43
2017-07-10T20:42:03.579Z,39.53
2017-07-10T20:44:31.937Z,40.43
2017-07-10T20:47:00.508Z,45.80
2017-07-10T20:49:28.791Z,47.27
2017-07-10T20:51:57.677Z,41.87
2017-07-10T20:54:26.544Z,39.83
2017-07-10T20:56:55.480Z,38.30
2017-07-10T20:59:24.085Z,36.93
2017-07-10T21:01:52.397Z,37.97
2017-07-10T21:04:21.455Z,38.23
2017-07-10T21:06:49.831Z,35.10
2017-07-10T21:09:18.129Z,34.80
2017-07-10T21:11:46.839Z,34.93
2017-07-10T21:14:15.882Z,33.77
2017-07-10T21:16:44.179Z,31.20
2017-07-10T21:19:12.587Z,37.43
2017-07-10T21:21:41.372Z,35.23
2017-07-10T21:24:10.455Z,35.53
2017-07-10T21:26:38.948Z,36.17
2017-07-10T21:29:07.230Z,38.70
2017-07-10T21:31:35.536Z,30.07
2017-07-10T21:34:04.513Z,18.33
2017-07-10T21:36:33.100Z,16.67
2017-07-10T21:39:01.921Z,15.70
2017-07-10T21:41:30.268Z,15.67
2017-07-10T21:43:58.578Z,14.27
2017-07-10T21:46:26.948Z,16.07
2017-07-10T21:48:55.545Z,16.70
2017-07-10T21:51:24.523Z,16.83
2017-07-10T21:53:52.812Z,17.23
2017-07-10T21:56:21.198Z,16.33
2017-07-10T21:58:50.639Z,19.93
2017-07-10T22:01:20.011Z,23.37
2017-07-10T22:03:48.318Z,22.47
2017-07-10T22:06:18.346Z,22.53
2017-07-10T22:08:47.113Z,21.40
2017-07-10T22:11:15.506Z,21.97
2017-07-10T22:13:44.103Z,22.60
2017-07-10T22:16:13.040Z,27.37
2017-07-10T22:18:41.335Z,25.33
2017-07-10T22:21:10.154Z,26.63
2017-07-10T22:23:39.670Z,26.07
2017-07-10T22:26:09.687Z,27.67
2017-07-10T22:28:39.298Z,26.77
2017-07-10T22:31:09.522Z,25.13
2017-07-10T22:33:39.059Z,25.87
2017-07-10T22:36:08.934Z,29.73
2017-07-10T22:38:38.784Z,22.60
2017-07-10T22:41:08.319Z,26.63
2017-07-10T22:43:38.667Z,19.47
2017-07-10T22:46:08.226Z,23.17
2017-07-10T22:48:36.385Z,20.07
2017-07-10T22:51:04.929Z,21.37
2017-07-10T22:53:35.215Z,24.10
2017-07-10T22:56:04.285Z,21.57
2017-07-10T22:58:33.740Z,25.03
2017-07-10T23:01:04.295Z,27.00
2017-07-10T23:03:34.181Z,28.37
2017-07-10T23:06:04.436Z,30.60
2017-07-10T23:08:34.827Z,27.17
2017-07-10T23:11:04.320Z,27.57
2017-07-10T23:13:33.853Z,23.20
2017-07-10T23:16:03.377Z,24.50
2017-07-10T23:18:32.885Z,25.67
2017-07-10T23:21:03.305Z,22.80
2017-07-10T23:23:32.818Z,29.80
2017-07-10T23:26:02.402Z,23.00
2017-07-10T23:28:32.198Z,22.07
2017-07-10T23:31:01.235Z,19.50
2017-07-10T23:33:30.160Z,20.93
2017-07-10T23:35:58.696Z,19.93
2017-07-10T23:38:27.017Z,22.67
2017-07-10T23:40:55.361Z,20.40
2017-07-10T23:43:23.968Z,25.53
2017-07-10T23:45:52.321Z,19.73
2017-07-10T23:48:20.998Z,22.70
2017-07-10T23:50:49.632Z,18.80
2017-07-10T23:53:17.912Z,22.03
2017-07-10T23:55:46.601Z,21.60
2017-07-10T23:58:15.167Z,19.40
